createdAt,value
2023-02-11T00:02:32.515Z,46.52
2023-02-11T00:07:36.544Z,46.88
2023-02-11T00:12:40.116Z,47.32
2023-02-11T00:17:44.964Z,45.98
2023-02-11T00:22:48.433Z,43.16
2023-02-11T00:27:51.862Z,40.21
2023-02-11T00:32:58.740Z,38.16
2023-02-11T00:38:02.266Z,34.89
2023-02-11T00:43:05.622Z,33.13
2023-02-11T00:48:10.414Z,33.78
2023-02-11T00:53:13.885Z,38.96
2023-02-11T00:58:19.817Z,38.93
2023-02-11T01:03:24.593Z,37.73
2023-02-11T01:08:30.432Z,38.34
2023-02-11T01:13:38.213Z,37.32
2023-02-11T01:18:44.452Z,39.56
2023-02-11T01:23:48.462Z,39.68
2023-02-11T01:28:51.920Z,35.49
2023-02-11T01:33:59.400Z,32.48
2023-02-11T01:39:06.142Z,30.10
2023-02-11T01:44:33.113Z,28.83
2023-02-11T01:49:39.951Z,28.75
2023-02-11T01:55:06.790Z,31.09
2023-02-11T02:00:14.196Z,34.13
2023-02-11T02:05:24.470Z,33.39
2023-02-11T02:10:32.546Z,35.66
2023-02-11T02:15:43.031Z,36.90
2023-02-11T02:21:13.021Z,35.18
2023-02-11T02:26:34.614Z,36.00
2023-02-11T02:31:54.356Z,36.11
2023-02-11T02:37:05.801Z,36.64
2023-02-11T02:42:10.510Z,36.09
2023-02-11T02:47:13.962Z,37.20
2023-02-11T02:52:28.389Z,37.49
2023-02-11T02:57:34.793Z,37.20
2023-02-11T03:02:46.247Z,36.21
2023-02-11T03:07:58.091Z,36.28
2023-02-11T03:13:06.557Z,35.30
2023-02-11T03:18:13.111Z,32.47
2023-02-11T03:23:21.961Z,32.73
2023-02-11T03:28:31.279Z,35.42
2023-02-11T03:33:39.706Z,40.27
2023-02-11T03:38:49.525Z,44.98
2023-02-11T03:43:55.781Z,32.75
2023-02-11T03:49:04.254Z,31.33
2023-02-11T03:54:12.789Z,30.28
2023-02-11T03:59:18.544Z,32.71
2023-02-11T04:04:22.056Z,32.54
2023-02-11T04:09:29.173Z,32.64
2023-02-11T04:14:32.579Z,33.66
2023-02-11T04:19:38.501Z,34.66
2023-02-11T04:24:44.102Z,35.12
2023-02-11T04:29:48.295Z,37.13
2023-02-11T04:34:55.092Z,36.50
2023-02-11T04:40:02.259Z,41.61
2023-02-11T04:45:07.257Z,34.95
2023-02-11T04:50:10.911Z,36.85
2023-02-11T04:55:18.176Z,37.67
2023-02-11T05:00:26.270Z,39.01
2023-02-11T05:05:29.698Z,35.82
2023-02-11T05:10:36.574Z,34.08
2023-02-11T05:15:42.370Z,34.44
2023-02-11T05:20:45.726Z,42.93
2023-02-11T05:25:52.852Z,33.57
2023-02-11T05:30:57.255Z,36.24
2023-02-11T05:36:01.276Z,38.84
2023-02-11T05:41:06.342Z,36.97
2023-02-11T05:46:09.816Z,35.47
2023-02-11T05:51:13.193Z,35.23
2023-02-11T05:56:18.139Z,38.15
2023-02-11T06:01:21.943Z,48.60
2023-02-11T06:06:27.828Z,44.19
2023-02-11T06:11:32.572Z,44.42
2023-02-11T06:16:36.037Z,44.31
2023-02-11T06:21:44.215Z,48.31
2023-02-11T06:26:49.400Z,55.04
2023-02-11T06:31:52.944Z,53.18
2023-02-11T06:36:56.832Z,51.56
2023-02-11T06:42:05.854Z,49.36
2023-02-11T06:47:10.537Z,52.02
2023-02-11T06:52:17.055Z,57.72
2023-02-11T06:57:21.936Z,58.35
2023-02-11T07:02:25.407Z,53.28
2023-02-11T07:07:28.984Z,53.52
2023-02-11T07:12:34.009Z,53.99
2023-02-11T07:17:37.647Z,56.12
2023-02-11T07:22:46.016Z,53.04
2023-02-11T07:27:51.233Z,52.40
2023-02-11T07:32:57.392Z,54.03
2023-02-11T07:38:00.857Z,51.77
2023-02-11T07:43:05.616Z,57.79
2023-02-11T07:48:09.159Z,60.36
2023-02-11T07:53:12.584Z,57.53
2023-02-11T07:58:17.393Z,59.97
2023-02-11T08:03:20.803Z,58.62
2023-02-11T08:08:28.070Z,59.82
2023-02-11T08:13:33.653Z,68.50
2023-02-11T08:18:40.420Z,61.58
2023-02-11T08:23:44.919Z,62.70
2023-02-11T08:28:50.808Z,61.94
2023-02-11T08:33:57.927Z,62.98
2023-02-11T08:39:17.493Z,62.11
2023-02-11T08:44:24.003Z,61.26
2023-02-11T08:49:27.491Z,57.82
2023-02-11T08:54:33.285Z,59.98
2023-02-11T08:59:41.133Z,65.57
2023-02-11T09:04:44.528Z,59.71
2023-02-11T09:09:48.080Z,56.24
2023-02-11T09:14:57.654Z,54.32
2023-02-11T09:20:01.137Z,51.34
2023-02-11T09:25:07.237Z,57.36
2023-02-11T09:30:14.792Z,59.88
2023-02-11T09:35:20.587Z,54.54
2023-02-11T09:40:26.633Z,53.48
2023-02-11T09:45:32.225Z,54.46
2023-02-11T09:50:42.140Z,57.22
2023-02-11T09:55:48.539Z,57.22
2023-02-11T10:00:59.446Z,56.00
2023-02-11T10:06:21.277Z,55.46
2023-02-11T10:11:32.728Z,58.03
2023-02-11T10:16:46.521Z,53.32
2023-02-11T10:21:58.565Z,54.89
2023-02-11T10:27:03.811Z,53.55
2023-02-11T10:32:28.688Z,54.04
2023-02-11T10:37:32.263Z,57.78
2023-02-11T10:42:37.075Z,50.89
2023-02-11T10:47:42.792Z,52.81
2023-02-11T10:52:49.339Z,52.62
2023-02-11T10:58:01.446Z,53.85
2023-02-11T11:03:08.667Z,56.32
2023-02-11T11:08:13.262Z,61.41
2023-02-11T11:13:27.080Z,64.01
2023-02-11T11:18:31.904Z,57.71
2023-02-11T11:23:37.939Z,55.43
2023-02-11T11:28:43.950Z,51.00
2023-02-11T11:33:50.213Z,51.88
2023-02-11T11:38:59.498Z,56.11
2023-02-11T11:44:19.889Z,54.66
2023-02-11T11:49:30.238Z,64.42
2023-02-11T11:54:35.196Z,55.60
2023-02-11T11:59:38.776Z,56.35
2023-02-11T12:04:54.016Z,55.04
2023-02-11T12:10:11.604Z,54.30
2023-02-11T12:15:31.954Z,62.48
2023-02-11T12:20:46.194Z,53.19
2023-02-11T12:25:57.760Z,57.68
2023-02-11T12:31:15.326Z,55.41
2023-02-11T12:36:28.777Z,56.79
2023-02-11T12:42:00.845Z,57.77
2023-02-11T12:47:11.449Z,68.54
2023-02-11T12:52:26.865Z,56.45
2023-02-11T12:57:32.995Z,57.23
2023-02-11T13:02:43.628Z,57.44
2023-02-11T13:07:51.871Z,56.05
2023-02-11T13:13:14.864Z,59.34
2023-02-11T13:18:37.237Z,65.21
2023-02-11T13:23:49.050Z,63.68
2023-02-11T13:28:56.220Z,76.40
2023-02-11T13:33:59.645Z,69.72
2023-02-11T13:39:08.020Z,68.61
2023-02-11T13:44:24.545Z,72.67
2023-02-11T13:49:33.710Z,68.75
2023-02-11T13:54:45.241Z,69.02
2023-02-11T13:59:50.524Z,66.81
2023-02-11T14:05:37.714Z,66.84
2023-02-11T14:10:52.469Z,66.54
2023-02-11T14:16:06.967Z,69.09
2023-02-11T14:21:15.460Z,64.63
2023-02-11T14:26:36.284Z,61.24
2023-02-11T14:31:43.942Z,63.73
2023-02-11T14:37:08.581Z,62.42
2023-02-11T14:42:20.971Z,64.13
2023-02-11T14:47:28.786Z,65.52
2023-02-11T14:52:35.180Z,61.50
2023-02-11T14:57:42.311Z,59.96
2023-02-11T15:02:48.823Z,64.03
2023-02-11T15:07:55.623Z,63.28
2023-02-11T15:13:02.015Z,56.94
2023-02-11T15:18:06.698Z,58.85
2023-02-11T15:23:20.022Z,57.12
2023-02-11T15:28:25.879Z,61.09
2023-02-11T15:33:33.155Z,58.47
2023-02-11T15:38:36.580Z,56.29
2023-02-11T15:43:46.630Z,60.58
2023-02-11T15:48:53.771Z,57.65
2023-02-11T15:53:59.425Z,53.51
2023-02-11T15:59:18.331Z,51.62
2023-02-11T16:04:23.836Z,63.73
2023-02-11T16:09:33.728Z,67.87
2023-02-11T16:14:39.393Z,55.93
2023-02-11T16:19:47.907Z,58.54
2023-02-11T16:24:52.770Z,49.98
2023-02-11T16:30:00.093Z,49.49
2023-02-11T16:35:09.179Z,49.99
2023-02-11T16:40:14.415Z,59.13
2023-02-11T16:45:19.166Z,44.93
2023-02-11T16:50:25.982Z,44.30
2023-02-11T16:55:29.884Z,56.95
2023-02-11T17:00:34.829Z,45.87
2023-02-11T17:05:54.260Z,40.82
2023-02-11T17:11:00.726Z,40.91
2023-02-11T17:16:05.675Z,40.85
2023-02-11T17:21:11.224Z,40.23
2023-02-11T17:26:18.449Z,43.87
2023-02-11T17:31:23.327Z,47.12
2023-02-11T17:36:26.805Z,35.95
2023-02-11T17:41:30.807Z,32.93
2023-02-11T17:46:36.605Z,35.77
2023-02-11T17:51:42.439Z,36.37
2023-02-11T17:56:48.411Z,38.81
2023-02-11T18:01:54.938Z,35.83
2023-02-11T18:06:58.757Z,36.05
2023-02-11T18:12:02.513Z,31.65
2023-02-11T18:17:07.568Z,32.20
2023-02-11T18:22:11.021Z,31.40
2023-02-11T18:27:14.516Z,33.46
2023-02-11T18:32:19.238Z,35.99
2023-02-11T18:37:22.750Z,32.76
2023-02-11T18:42:28.976Z,31.13
2023-02-11T18:47:33.778Z,29.69
2023-02-11T18:52:39.312Z,29.70
2023-02-11T18:57:43.392Z,31.39
2023-02-11T19:02:50.399Z,30.18
2023-02-11T19:07:57.948Z,27.98
2023-02-11T19:13:01.448Z,27.35
2023-02-11T19:18:06.540Z,28.03
2023-02-11T19:23:10.010Z,26.42
2023-02-11T19:28:14.144Z,37.20
2023-02-11T19:33:20.265Z,38.14
2023-02-11T19:38:26.131Z,30.24
2023-02-11T19:43:29.726Z,28.70
2023-02-11T19:48:34.978Z,29.59
2023-02-11T19:53:40.677Z,30.58
2023-02-11T19:58:48.731Z,30.61
2023-02-11T20:03:58.378Z,27.79
2023-02-11T20:09:02.797Z,34.78
2023-02-11T20:14:10.559Z,26.09
2023-02-11T20:19:18.148Z,26.85
2023-02-11T20:24:21.873Z,27.30
2023-02-11T20:29:31.891Z,27.16
2023-02-11T20:34:36.684Z,28.43
2023-02-11T20:39:43.197Z,27.91
2023-02-11T20:44:46.651Z,37.18
2023-02-11T20:49:51.617Z,26.73
2023-02-11T20:54:57.598Z,30.37
2023-02-11T21:00:04.937Z,33.52
2023-02-11T21:05:12.876Z,26.45
2023-02-11T21:10:16.372Z,24.16
2023-02-11T21:15:19.901Z,23.80
2023-02-11T21:20:27.825Z,24.15
2023-02-11T21:25:31.316Z,24.02
2023-02-11T21:30:38.482Z,21.56
2023-02-11T21:35:43.277Z,19.91
2023-02-11T21:40:47.156Z,17.38
2023-02-11T21:45:53.478Z,19.25
2023-02-11T21:51:05.454Z,17.32
2023-02-11T21:56:10.375Z,21.52
2023-02-11T22:01:15.176Z,19.82
2023-02-11T22:06:26.099Z,19.69
2023-02-11T22:11:29.634Z,20.08
2023-02-11T22:16:33.170Z,19.58
2023-02-11T22:21:40.776Z,14.82
2023-02-11T22:26:46.314Z,13.42
2023-02-11T22:31:52.249Z,17.58
2023-02-11T22:36:59.284Z,19.23
2023-02-11T22:42:02.677Z,20.96
2023-02-11T22:47:06.182Z,26.02
2023-02-11T22:52:13.324Z,22.92
2023-02-11T22:57:16.759Z,32.84
2023-02-11T23:02:22.395Z,15.30
2023-02-11T23:07:27.328Z,19.71
2023-02-11T23:12:33.226Z,19.15
2023-02-11T23:17:36.613Z,24.29
2023-02-11T23:22:41.411Z,22.66
2023-02-11T23:27:47.985Z,21.82
2023-02-11T23:32:52.289Z,18.92
2023-02-11T23:37:57.093Z,19.33
2023-02-11T23:43:00.479Z,16.90
2023-02-11T23:48:04.025Z,24.35
2023-02-11T23:53:08.898Z,12.92
2023-02-11T23:58:15.495Z,18.77
